Terminal Aerodrome Forecast
Issued by NWS Columbia, SC

Home | Current Version | Previous Version | Text Only | Print | Product List | Glossary On
Versions: 1 2 3 4 5 6 7 8 9 10 11 12 13 14 15 16 17 18 19 20 21 22 23 24 25 26 27 28 29 30 31 32 33 34 35 36 37 38 39 40 41 42
000
FTAK31 PAJN 071100
TAFAGS
TAF
PAGS 071125Z 0712/0812 00000KT P6SM BCFG OVC006
     FM071500 VRB03KT P6SM BCFG SCT006 SCT150
     FM072000 23007KT P6SM SCT050 BKN100
     FM080200 VRB04KT P6SM SCT025 BKN050
     FM080600 VRB03KT P6SM VCSH OVC050
     FM081000 00000KT P6SM -RA SCT020 OVC040
      AMD LTD TO CLD VIS AND WIND=

USA.gov is the U.S. government's official web portal to all federal, state and local government web resources and services.